This is the latest recevied weather packets stored in our database for station/object KC1DMA. If no packets are shown the sender has not sent any weather packets the latest 10 day(s).
| Time | Temp. | Humidity | Pressure | Rain* | Wind** | Luminosity | Snow |
|---|---|---|---|---|---|---|---|
| 1777738741 | 11.67° C | 76% | 1012.9 hPa | - | - | 40 W/m² | - |
| 1777738437 | 11.67° C | 75% | 1012.9 hPa | - | - | 35 W/m² | - |
| 1777738135 | 11.67° C | 76% | 1012.9 hPa | - | - | 36 W/m² | - |
| 1777737833 | 11.67° C | 74% | 1012.8 hPa | - | - | 67 W/m² | - |
| 1777737532 | 11.67° C | 74% | 1012.7 hPa | - | - | 146 W/m² | - |
| 1777736925 | 11.67° C | 73% | 1013 hPa | - | - | 130 W/m² | - |
| 1777736316 | 11.67° C | 75% | 1013.1 hPa | - | - | 126 W/m² | - |
| 1777736013 | 11.67° C | 75% | 1013 hPa | - | - | 118 W/m² | - |
| 1777735711 | 11.67° C | 77% | 1013.3 hPa | - | - | 125 W/m² | - |
| 1777735408 | 11.67° C | 76% | 1013.3 hPa | - | - | 96 W/m² | - |
| 1777735106 | 11.67° C | 76% | 1013.4 hPa | - | - | 123 W/m² | - |
| 1777734802 | 11.67° C | 76% | 1013.4 hPa | - | - | 145 W/m² | - |
| 1777734500 | 11.67° C | 75% | 1013.3 hPa | - | - | 257 W/m² | - |
| 1777733892 | 12.22° C | 75% | 1013.4 hPa | - | - | 272 W/m² | - |
| 1777733286 | 11.67° C | 79% | 1013.3 hPa | - | - | 278 W/m² | - |
| 1777732983 | 11.67° C | 77% | 1013.5 hPa | - | - | 224 W/m² | - |
| 1777732678 | 12.22° C | 76% | 1013.6 hPa | - | - | 250 W/m² | - |
| 1777732376 | 11.67° C | 78% | 1013.3 hPa | - | - | 373 W/m² | - |
| 1777732074 | 11.67° C | 80% | 1013.5 hPa | - | - | 182 W/m² | - |
| 1777731770 | 11.67° C | 80% | 1013.4 hPa | - | - | 182 W/m² | - |
| 1777731467 | 11.67° C | 80% | 1013.5 hPa | - | - | 182 W/m² | - |
| 1777731165 | 11.67° C | 80% | 1013.6 hPa | - | - | 182 W/m² | - |
| 1777730863 | 11.11° C | 79% | 1013.4 hPa | - | - | 143 W/m² | - |
| 1777730560 | 11.11° C | 79% | 1013.5 hPa | - | - | 143 W/m² | - |
| 1777730256 | 11.11° C | 79% | 1013.5 hPa | - | - | 143 W/m² | - |
* Rain since midnight (hover to see other rain measurements)
** Current wind speed in m/s (hover to see current wind gust speed)